CheckWX is a tool to help pilots better visualize weather data.  It is not intended as a substitute for an official pre-flight weather briefing.

00:03:26 UTC

GCTS METAR
Tenerife South Airport
Tenerife Island, Spain
Current

33 mins ago

GCTS 012330Z 04004KT 9999 FEW025 18/13 Q1018 NOSIG
Observed
Apr-1 @ 23:30 UTC
Wind
  • 040° at 4 KTS
Visibility
10,000+ meters
Flight Rules
VFR
Cloud Levels
  • Few at 2,500' AGL
Temperature
18°C / 64°F
Dewpoint
13°C / 55°F
Humidity
73%
Altimeter
30.06" Hg
Pressure
1017.92 hPa
Previous

1 hour ago

GCTS 012300Z 05005KT 9999 FEW025 18/13 Q1018 NOSIG
Observed
Apr-1 @ 23:00 UTC
Wind
  • 050° at 5 KTS
Visibility
10,000+ meters
Flight Rules
VFR
Cloud Levels
  • Few at 2,500' AGL
Temperature
18°C / 64°F
Dewpoint
13°C / 55°F
Humidity
73%
Altimeter
30.06" Hg
Pressure
1017.92 hPa
Previous

2 hours ago

GCTS 012230Z 05006KT 9999 FEW025 SCT033 18/13 Q1018 NOSIG
Observed
Apr-1 @ 22:30 UTC
Wind
  • 050° at 6 KTS
Visibility
10,000+ meters
Flight Rules
VFR
Cloud Levels
  • Few at 2,500' AGL
  • Scattered at 3,300' AGL
Temperature
18°C / 64°F
Dewpoint
13°C / 55°F
Humidity
73%
Altimeter
30.06" Hg
Pressure
1017.92 hPa